createdAt,value
2023-03-28T00:01:29.709Z,97740.56
2023-03-28T00:06:31.985Z,97742.00
2023-03-28T00:11:33.852Z,97744.69
2023-03-28T00:16:39.281Z,97740.34
2023-03-28T00:21:47.024Z,97743.44
2023-03-28T00:26:49.750Z,97752.56
2023-03-28T00:31:51.706Z,97752.94
2023-03-28T00:36:55.189Z,97762.94
2023-03-28T00:42:01.483Z,97770.59
2023-03-28T00:47:05.645Z,97773.69
2023-03-28T00:52:08.543Z,97769.13
2023-03-28T00:57:10.594Z,97778.03
2023-03-28T01:02:12.524Z,97780.13
2023-03-28T01:07:16.375Z,97787.44
2023-03-28T01:12:20.231Z,97791.97
2023-03-28T01:17:21.988Z,97789.53
2023-03-28T01:23:02.620Z,97798.50
2023-03-28T01:28:24.046Z,97797.03
2023-03-28T01:33:44.752Z,97801.03
2023-03-28T01:38:58.254Z,97798.34
2023-03-28T01:44:25.339Z,97804.34
2023-03-28T01:49:41.951Z,97818.63
2023-03-28T01:54:46.629Z,97813.63
2023-03-28T02:00:15.762Z,97812.72
2023-03-28T02:05:38.072Z,97820.22
2023-03-28T02:10:46.202Z,97818.31
2023-03-28T02:16:00.674Z,97820.34
2023-03-28T02:21:34.850Z,97819.72
2023-03-28T02:26:47.761Z,97834.25
2023-03-28T02:31:59.797Z,97840.44
2023-03-28T02:37:29.652Z,97846.69
2023-03-28T02:42:39.809Z,97850.81
2023-03-28T02:48:36.680Z,97841.28
2023-03-28T02:53:51.072Z,97854.66
2023-03-28T02:59:07.165Z,97843.06
2023-03-28T03:04:09.025Z,97853.41
2023-03-28T03:09:11.343Z,97855.31
2023-03-28T03:14:13.077Z,97861.91
2023-03-28T03:19:15.452Z,97850.91
2023-03-28T03:24:17.193Z,97865.34
2023-03-28T03:29:20.052Z,97861.56
2023-03-28T03:34:21.957Z,97867.34
2023-03-28T03:39:30.187Z,97866.28
2023-03-28T03:44:32.022Z,97869.75
2023-03-28T03:49:33.816Z,97875.91
2023-03-28T03:54:38.486Z,97876.78
2023-03-28T03:59:40.945Z,97890.63
2023-03-28T04:04:47.764Z,97894.53
2023-03-28T04:09:58.030Z,97896.03
2023-03-28T04:15:02.702Z,97909.13
2023-03-28T04:20:13.909Z,97907.91
2023-03-28T04:25:34.596Z,97911.38
2023-03-28T04:30:43.511Z,97906.16
2023-03-28T04:36:09.767Z,97904.56
2023-03-28T04:41:13.630Z,97904.75
2023-03-28T04:46:33.829Z,97915.69
2023-03-28T04:51:43.928Z,97927.25
2023-03-28T04:56:49.410Z,97932.63
2023-03-28T05:01:58.350Z,97938.06
2023-03-28T05:07:03.821Z,97942.69
2023-03-28T05:12:06.791Z,97946.16
2023-03-28T05:17:24.732Z,97943.09
2023-03-28T05:22:36.338Z,97949.78
2023-03-28T05:27:38.765Z,97957.34
2023-03-28T05:32:41.175Z,97952.72
2023-03-28T05:37:47.032Z,97971.22
2023-03-28T05:42:49.352Z,97968.53
2023-03-28T05:47:56.034Z,97971.41
2023-03-28T05:52:58.913Z,97973.91
2023-03-28T05:58:00.615Z,97992.19
2023-03-28T06:03:17.262Z,97994.88
2023-03-28T06:08:20.539Z,98003.59
2023-03-28T06:13:22.825Z,98004.25
2023-03-28T06:18:26.239Z,98013.00
2023-03-28T06:23:28.560Z,98018.63
2023-03-28T06:28:31.302Z,98015.94
2023-03-28T06:33:52.383Z,98035.84
2023-03-28T06:38:58.217Z,98036.38
2023-03-28T06:44:02.187Z,98046.78
2023-03-28T06:49:29.907Z,98050.97
2023-03-28T06:55:05.076Z,98059.38
2023-03-28T07:00:08.293Z,98059.84
2023-03-28T07:05:40.483Z,98069.03
2023-03-28T07:10:43.333Z,98080.34
2023-03-28T07:15:45.412Z,98083.97
2023-03-28T07:20:51.947Z,98112.03
2023-03-28T07:26:07.282Z,98089.66
2023-03-28T07:31:09.638Z,98101.16
2023-03-28T07:36:19.137Z,98106.59
2023-03-28T07:41:26.628Z,98108.72
2023-03-28T07:46:28.700Z,98109.34
2023-03-28T07:51:32.359Z,98118.38
2023-03-28T07:56:34.092Z,98127.59
2023-03-28T08:01:46.835Z,98124.25
2023-03-28T08:06:49.102Z,98132.75
2023-03-28T08:11:51.152Z,98126.66
2023-03-28T08:16:53.703Z,98132.09
2023-03-28T08:21:58.721Z,98142.72
2023-03-28T08:27:01.980Z,98141.53
2023-03-28T08:32:06.378Z,98149.94
2023-03-28T08:37:08.866Z,98146.78
2023-03-28T08:42:28.660Z,98153.84
2023-03-28T08:47:36.813Z,98166.03
2023-03-28T08:52:40.694Z,98152.69
2023-03-28T08:57:45.634Z,98167.38
2023-03-28T09:02:49.159Z,98156.97
2023-03-28T09:13:49.960Z,98177.78
2023-03-28T09:19:36.886Z,98164.50
2023-03-28T09:25:32.796Z,98167.09
2023-03-28T09:30:43.499Z,98155.22
2023-03-28T09:35:47.034Z,98164.78
2023-03-28T09:40:54.365Z,98165.03
2023-03-28T09:46:22.385Z,98170.69
2023-03-28T09:51:42.684Z,98166.09
2023-03-28T09:56:46.181Z,98164.63
2023-03-28T10:02:00.731Z,98172.13
2023-03-28T10:07:08.448Z,98165.47
2023-03-28T10:12:10.974Z,98161.31
2023-03-28T10:17:27.836Z,98155.81
2023-03-28T10:22:33.940Z,98158.16
2023-03-28T10:27:37.502Z,98143.38
2023-03-28T10:32:42.714Z,98156.16
2023-03-28T10:38:05.997Z,98155.75
2023-03-28T10:43:39.946Z,98144.91
2023-03-28T10:48:56.491Z,98153.25
2023-03-28T10:54:27.002Z,98146.97
2023-03-28T10:59:35.164Z,98157.00
2023-03-28T11:04:56.459Z,98159.94
2023-03-28T11:10:11.739Z,98151.41
2023-03-28T11:15:38.204Z,98151.13
2023-03-28T11:21:34.215Z,98139.81
2023-03-28T11:27:08.625Z,98143.34
2023-03-28T11:32:55.843Z,98126.63
2023-03-28T11:38:06.349Z,98144.19
2023-03-28T11:43:16.731Z,98126.63
2023-03-28T11:48:43.771Z,98118.91
2023-03-28T11:54:10.088Z,98124.00
2023-03-28T11:59:22.824Z,98101.41
2023-03-28T12:04:30.375Z,98103.13
2023-03-28T12:10:00.123Z,98093.25
2023-03-28T12:15:14.456Z,98081.59
2023-03-28T12:20:56.127Z,98081.59
2023-03-28T12:26:40.612Z,98075.25
2023-03-28T12:32:19.778Z,98068.00
2023-03-28T12:37:28.119Z,98066.00
2023-03-28T12:42:36.352Z,98061.31
2023-03-28T12:47:46.634Z,98069.81
2023-03-28T12:52:49.516Z,98064.06
2023-03-28T12:58:21.183Z,98071.56
2023-03-28T13:04:01.424Z,98070.13
2023-03-28T13:09:44.664Z,98063.69
2023-03-28T13:15:01.944Z,98076.41
2023-03-28T13:20:17.467Z,98051.72
2023-03-28T13:25:25.673Z,98058.75
2023-03-28T13:30:29.818Z,98066.00
2023-03-28T13:35:44.747Z,98040.91
2023-03-28T13:41:06.983Z,98048.06
2023-03-28T13:46:16.586Z,98045.16
2023-03-28T13:51:26.584Z,98036.78
2023-03-28T13:56:34.435Z,98034.91
2023-03-28T14:01:49.178Z,98022.84
2023-03-28T14:06:52.791Z,98022.13
2023-03-28T14:12:12.267Z,98013.91
2023-03-28T14:17:36.619Z,98017.25
2023-03-28T14:22:52.857Z,97999.78
2023-03-28T14:28:07.908Z,98007.88
2023-03-28T14:33:14.691Z,98013.88
2023-03-28T14:38:32.078Z,98005.34
2023-03-28T14:43:34.654Z,97998.09
2023-03-28T14:48:39.119Z,97997.38
2023-03-28T14:53:44.912Z,97987.22
2023-03-28T14:58:48.423Z,97992.81
2023-03-28T15:03:59.776Z,97981.75
2023-03-28T15:09:11.304Z,97974.50
2023-03-28T15:14:16.969Z,97974.88
2023-03-28T15:19:32.077Z,97973.19
2023-03-28T15:24:36.615Z,97955.53
2023-03-28T15:29:39.338Z,97966.19
2023-03-28T15:34:46.974Z,97953.38
2023-03-28T15:39:50.885Z,97947.06
2023-03-28T15:45:28.433Z,97940.66
2023-03-28T15:50:37.429Z,97939.72
2023-03-28T15:55:40.785Z,97932.50
2023-03-28T16:00:49.273Z,97933.44
2023-03-28T16:06:04.596Z,97940.66
2023-03-28T16:11:21.422Z,97928.34
2023-03-28T16:16:56.125Z,97930.94
2023-03-28T16:22:17.690Z,97933.06
2023-03-28T16:27:20.696Z,97930.47
2023-03-28T16:32:23.876Z,97924.78
2023-03-28T16:37:25.892Z,97926.00
2023-03-28T16:42:28.580Z,97914.94
2023-03-28T16:47:30.651Z,97909.38
2023-03-28T16:52:32.605Z,97907.66
2023-03-28T16:57:44.730Z,97905.84
2023-03-28T17:02:52.310Z,97908.09
2023-03-28T17:07:54.027Z,97896.59
2023-03-28T17:12:56.641Z,97887.81
2023-03-28T17:17:59.179Z,97882.13
2023-03-28T17:23:01.071Z,97882.44
2023-03-28T17:28:02.820Z,97873.72
2023-03-28T17:33:04.730Z,97866.19
2023-03-28T17:38:06.745Z,97884.00
2023-03-28T17:43:09.341Z,97875.88
2023-03-28T17:48:12.604Z,97873.81
2023-03-28T17:53:14.361Z,97874.53
2023-03-28T17:58:16.138Z,97876.50
2023-03-28T18:03:18.121Z,97885.97
2023-03-28T18:08:40.359Z,97867.31
2023-03-28T18:13:42.969Z,97864.25
2023-03-28T18:18:44.828Z,97855.00
2023-03-28T18:23:48.139Z,97859.75
2023-03-28T18:28:50.348Z,97852.19
2023-03-28T18:33:53.984Z,97853.78
2023-03-28T18:38:56.255Z,97850.03
2023-03-28T18:43:58.126Z,97841.72
2023-03-28T18:49:00.737Z,97845.16
2023-03-28T18:54:03.694Z,97838.25
2023-03-28T18:59:05.545Z,97842.34
2023-03-28T19:04:07.850Z,97842.38
2023-03-28T19:09:10.734Z,97845.69
2023-03-28T19:14:13.059Z,97844.84
2023-03-28T19:19:15.265Z,97834.03
2023-03-28T19:24:19.904Z,97824.03
2023-03-28T19:29:21.665Z,97821.13
2023-03-28T19:34:23.714Z,97827.78
2023-03-28T19:39:25.405Z,97816.31
2023-03-28T19:44:27.183Z,97810.28
2023-03-28T19:49:28.928Z,97796.16
2023-03-28T19:54:30.588Z,97791.59
2023-03-28T19:59:32.267Z,97788.66
2023-03-28T20:04:34.093Z,97787.63
2023-03-28T20:09:35.931Z,97791.56
2023-03-28T20:14:37.603Z,97777.84
2023-03-28T20:19:39.423Z,97781.56
2023-03-28T20:24:41.269Z,97776.09
2023-03-28T20:29:43.029Z,97778.13
2023-03-28T20:34:44.856Z,97784.19
2023-03-28T20:39:48.047Z,97776.69
2023-03-28T20:44:49.994Z,97775.03
2023-03-28T20:49:56.763Z,97766.13
2023-03-28T20:54:58.927Z,97767.81
2023-03-28T21:00:01.705Z,97758.19
2023-03-28T21:05:03.487Z,97754.22
2023-03-28T21:10:07.372Z,97728.63
2023-03-28T21:15:12.930Z,97732.34
2023-03-28T21:20:14.772Z,97733.56
2023-03-28T21:25:16.959Z,97719.34
2023-03-28T21:30:19.392Z,97709.13
2023-03-28T21:35:21.612Z,97708.31
2023-03-28T21:40:23.632Z,97700.13
2023-03-28T21:45:25.318Z,97695.97
2023-03-28T21:50:31.315Z,97684.28
2023-03-28T21:55:33.040Z,97687.19
2023-03-28T22:00:35.173Z,97679.06
2023-03-28T22:05:42.847Z,97675.69
2023-03-28T22:10:50.294Z,97680.81
2023-03-28T22:15:53.229Z,97669.13
2023-03-28T22:20:55.232Z,97658.88
2023-03-28T22:25:58.448Z,97651.72
2023-03-28T22:31:00.461Z,97646.47
2023-03-28T22:36:02.500Z,97651.03
2023-03-28T22:41:04.758Z,97638.00
2023-03-28T22:46:06.622Z,97640.22
2023-03-28T22:51:11.851Z,97636.19
2023-03-28T22:56:13.817Z,97628.19
2023-03-28T23:01:15.600Z,97636.50
2023-03-28T23:06:17.579Z,97637.53
2023-03-28T23:11:19.908Z,97636.06
2023-03-28T23:16:22.043Z,97628.94
2023-03-28T23:21:24.426Z,97640.59
2023-03-28T23:26:26.399Z,97646.75
2023-03-28T23:31:28.306Z,97658.25
2023-03-28T23:36:30.083Z,97667.38
2023-03-28T23:41:32.089Z,97676.94
2023-03-28T23:46:34.157Z,97679.19
2023-03-28T23:51:36.439Z,97692.03
2023-03-28T23:56:38.742Z,97706.25
